sensor_id;sensor_type;location;lat;lon;timestamp;temperature;humidity
21592;DHT22;10958;50.892;3.992;2022-11-15T00:01:20;11.20;99.90
21592;DHT22;10958;50.892;3.992;2022-11-15T00:03:50;11.30;99.90
21592;DHT22;10958;50.892;3.992;2022-11-15T00:06:16;11.30;99.90
21592;DHT22;10958;50.892;3.992;2022-11-15T00:08:45;11.40;99.90
21592;DHT22;10958;50.892;3.992;2022-11-15T00:11:12;11.30;99.90
21592;DHT22;10958;50.892;3.992;2022-11-15T00:13:38;11.40;99.90
21592;DHT22;10958;50.892;3.992;2022-11-15T00:16:04;11.40;99.90
21592;DHT22;10958;50.892;3.992;2022-11-15T00:18:30;11.50;99.90
21592;DHT22;10958;50.892;3.992;2022-11-15T00:21:02;11.50;99.90
21592;DHT22;10958;50.892;3.992;2022-11-15T00:23:28;11.50;99.90
21592;DHT22;10958;50.892;3.992;2022-11-15T00:26:00;11.50;99.90
21592;DHT22;10958;50.892;3.992;2022-11-15T00:28:26;11.50;99.90
21592;DHT22;10958;50.892;3.992;2022-11-15T00:30:52;11.40;99.90
21592;DHT22;10958;50.892;3.992;2022-11-15T00:33:18;11.50;99.90
21592;DHT22;10958;50.892;3.992;2022-11-15T00:35:44;11.50;99.90
21592;DHT22;10958;50.892;3.992;2022-11-15T00:38:10;11.50;99.90
21592;DHT22;10958;50.892;3.992;2022-11-15T00:40:36;11.50;99.90
21592;DHT22;10958;50.892;3.992;2022-11-15T00:43:01;11.50;99.90
21592;DHT22;10958;50.892;3.992;2022-11-15T00:45:27;11.50;99.90
21592;DHT22;10958;50.892;3.992;2022-11-15T00:47:55;11.50;99.90
21592;DHT22;10958;50.892;3.992;2022-11-15T00:50:24;11.50;99.90
21592;DHT22;10958;50.892;3.992;2022-11-15T00:52:50;11.50;99.90
21592;DHT22;10958;50.892;3.992;2022-11-15T00:55:17;11.50;99.90
21592;DHT22;10958;50.892;3.992;2022-11-15T00:57:47;11.60;99.90
21592;DHT22;10958;50.892;3.992;2022-11-15T01:00:13;11.60;99.90
21592;DHT22;10958;50.892;3.992;2022-11-15T01:02:38;11.60;99.90
21592;DHT22;10958;50.892;3.992;2022-11-15T01:05:05;11.60;99.90
21592;DHT22;10958;50.892;3.992;2022-11-15T01:07:33;11.60;99.90
21592;DHT22;10958;50.892;3.992;2022-11-15T01:09:59;11.70;99.90
21592;DHT22;10958;50.892;3.992;2022-11-15T01:12:25;11.70;99.90
21592;DHT22;10958;50.892;3.992;2022-11-15T01:14:51;11.70;99.90
21592;DHT22;10958;50.892;3.992;2022-11-15T01:17:16;11.80;99.90
21592;DHT22;10958;50.892;3.992;2022-11-15T01:19:42;11.80;99.90
21592;DHT22;10958;50.892;3.992;2022-11-15T01:22:08;11.80;99.90
21592;DHT22;10958;50.892;3.992;2022-11-15T01:24:34;11.80;99.90
21592;DHT22;10958;50.892;3.992;2022-11-15T01:26:59;11.80;99.90
21592;DHT22;10958;50.892;3.992;2022-11-15T01:29:25;11.80;99.90
21592;DHT22;10958;50.892;3.992;2022-11-15T01:31:53;11.80;99.90
21592;DHT22;10958;50.892;3.992;2022-11-15T01:34:19;11.70;99.90
21592;DHT22;10958;50.892;3.992;2022-11-15T01:36:44;11.70;99.90
21592;DHT22;10958;50.892;3.992;2022-11-15T01:39:10;11.70;99.90
21592;DHT22;10958;50.892;3.992;2022-11-15T01:41:35;11.60;99.90
21592;DHT22;10958;50.892;3.992;2022-11-15T01:47:21;11.70;99.90
21592;DHT22;10958;50.892;3.992;2022-11-15T01:49:53;11.70;99.90
21592;DHT22;10958;50.892;3.992;2022-11-15T01:52:22;11.60;99.90
21592;DHT22;10958;50.892;3.992;2022-11-15T01:55:13;11.60;99.90
21592;DHT22;10958;50.892;3.992;2022-11-15T01:57:39;11.60;99.90
21592;DHT22;10958;50.892;3.992;2022-11-15T02:00:07;11.60;99.90
21592;DHT22;10958;50.892;3.992;2022-11-15T02:02:34;11.50;99.90
21592;DHT22;10958;50.892;3.992;2022-11-15T02:05:04;11.60;99.90
21592;DHT22;10958;50.892;3.992;2022-11-15T02:07:31;11.60;99.90
21592;DHT22;10958;50.892;3.992;2022-11-15T02:10:17;11.50;99.90
21592;DHT22;10958;50.892;3.992;2022-11-15T02:12:43;11.50;99.90
21592;DHT22;10958;50.892;3.992;2022-11-15T02:15:10;11.50;99.90
21592;DHT22;10958;50.892;3.992;2022-11-15T02:18:17;11.50;99.90
21592;DHT22;10958;50.892;3.992;2022-11-15T02:21:02;11.50;99.90
21592;DHT22;10958;50.892;3.992;2022-11-15T02:38:29;11.60;99.90
21592;DHT22;10958;50.892;3.992;2022-11-15T02:41:25;11.60;99.90
21592;DHT22;10958;50.892;3.992;2022-11-15T02:46:59;11.60;99.90
21592;DHT22;10958;50.892;3.992;2022-11-15T02:49:42;11.60;99.90
21592;DHT22;10958;50.892;3.992;2022-11-15T02:52:09;11.60;99.90
21592;DHT22;10958;50.892;3.992;2022-11-15T02:54:40;11.60;99.90
21592;DHT22;10958;50.892;3.992;2022-11-15T02:57:16;11.70;99.90
21592;DHT22;10958;50.892;3.992;2022-11-15T03:13:19;11.50;99.90
21592;DHT22;10958;50.892;3.992;2022-11-15T03:15:59;11.40;99.90
21592;DHT22;10958;50.892;3.992;2022-11-15T03:18:32;11.50;99.90
21592;DHT22;10958;50.892;3.992;2022-11-15T03:21:01;11.50;99.90
21592;DHT22;10958;50.892;3.992;2022-11-15T03:23:30;11.50;99.90
21592;DHT22;10958;50.892;3.992;2022-11-15T03:25:59;11.50;99.90
21592;DHT22;10958;50.892;3.992;2022-11-15T03:28:34;11.60;99.90
21592;DHT22;10958;50.892;3.992;2022-11-15T03:31:03;11.60;99.90
21592;DHT22;10958;50.892;3.992;2022-11-15T03:33:53;11.60;99.90
21592;DHT22;10958;50.892;3.992;2022-11-15T03:36:24;11.50;99.90
21592;DHT22;10958;50.892;3.992;2022-11-15T03:38:56;11.50;99.90
21592;DHT22;10958;50.892;3.992;2022-11-15T03:41:35;11.40;99.90
21592;DHT22;10958;50.892;3.992;2022-11-15T03:44:30;11.40;99.90
21592;DHT22;10958;50.892;3.992;2022-11-15T03:47:18;11.30;99.90
21592;DHT22;10958;50.892;3.992;2022-11-15T03:49:52;11.30;99.90
21592;DHT22;10958;50.892;3.992;2022-11-15T03:52:22;11.20;99.90
21592;DHT22;10958;50.892;3.992;2022-11-15T03:54:52;11.30;99.90
21592;DHT22;10958;50.892;3.992;2022-11-15T03:57:21;11.30;99.90
21592;DHT22;10958;50.892;3.992;2022-11-15T03:59:47;11.40;99.90
21592;DHT22;10958;50.892;3.992;2022-11-15T04:02:13;11.30;99.90
21592;DHT22;10958;50.892;3.992;2022-11-15T04:04:39;11.30;99.90
21592;DHT22;10958;50.892;3.992;2022-11-15T04:07:05;11.30;99.90
21592;DHT22;10958;50.892;3.992;2022-11-15T04:09:31;11.20;99.90
21592;DHT22;10958;50.892;3.992;2022-11-15T04:11:57;11.10;99.90
21592;DHT22;10958;50.892;3.992;2022-11-15T04:14:23;11.10;99.90
21592;DHT22;10958;50.892;3.992;2022-11-15T04:16:49;11.10;99.90
21592;DHT22;10958;50.892;3.992;2022-11-15T04:19:15;11.00;99.90
21592;DHT22;10958;50.892;3.992;2022-11-15T04:22:01;11.00;99.90
21592;DHT22;10958;50.892;3.992;2022-11-15T04:24:45;11.10;99.90
21592;DHT22;10958;50.892;3.992;2022-11-15T04:27:11;10.90;99.90
21592;DHT22;10958;50.892;3.992;2022-11-15T04:29:39;10.90;99.90
21592;DHT22;10958;50.892;3.992;2022-11-15T04:32:06;10.80;99.90
21592;DHT22;10958;50.892;3.992;2022-11-15T04:34:32;10.80;99.90
21592;DHT22;10958;50.892;3.992;2022-11-15T04:37:01;10.70;99.90
21592;DHT22;10958;50.892;3.992;2022-11-15T04:39:40;10.70;99.90
21592;DHT22;10958;50.892;3.992;2022-11-15T04:42:09;10.70;99.90
21592;DHT22;10958;50.892;3.992;2022-11-15T04:44:35;10.60;99.90
21592;DHT22;10958;50.892;3.992;2022-11-15T04:47:02;10.60;99.90
21592;DHT22;10958;50.892;3.992;2022-11-15T04:49:28;10.60;99.90
21592;DHT22;10958;50.892;3.992;2022-11-15T04:51:57;10.70;99.90
21592;DHT22;10958;50.892;3.992;2022-11-15T04:54:23;10.80;99.90
21592;DHT22;10958;50.892;3.992;2022-11-15T04:56:49;10.70;99.90
21592;DHT22;10958;50.892;3.992;2022-11-15T04:59:19;10.80;99.90
21592;DHT22;10958;50.892;3.992;2022-11-15T05:01:45;10.70;99.90
21592;DHT22;10958;50.892;3.992;2022-11-15T05:04:13;10.70;99.90
21592;DHT22;10958;50.892;3.992;2022-11-15T05:06:51;10.60;99.90
21592;DHT22;10958;50.892;3.992;2022-11-15T05:09:19;10.60;99.90
21592;DHT22;10958;50.892;3.992;2022-11-15T05:11:45;10.50;99.90
21592;DHT22;10958;50.892;3.992;2022-11-15T05:14:11;10.40;99.90
21592;DHT22;10958;50.892;3.992;2022-11-15T05:16:37;10.40;99.90
21592;DHT22;10958;50.892;3.992;2022-11-15T05:19:04;10.50;99.90
21592;DHT22;10958;50.892;3.992;2022-11-15T05:21:30;10.30;99.90
21592;DHT22;10958;50.892;3.992;2022-11-15T05:23:56;10.30;99.90
21592;DHT22;10958;50.892;3.992;2022-11-15T05:26:22;10.30;99.90
21592;DHT22;10958;50.892;3.992;2022-11-15T05:28:55;10.30;99.90
21592;DHT22;10958;50.892;3.992;2022-11-15T05:31:25;10.30;99.90
21592;DHT22;10958;50.892;3.992;2022-11-15T05:33:52;10.40;99.90
21592;DHT22;10958;50.892;3.992;2022-11-15T05:36:25;10.30;99.90
21592;DHT22;10958;50.892;3.992;2022-11-15T05:38:53;10.40;99.90
21592;DHT22;10958;50.892;3.992;2022-11-15T05:41:32;10.40;99.90
21592;DHT22;10958;50.892;3.992;2022-11-15T05:43:59;10.30;99.90
21592;DHT22;10958;50.892;3.992;2022-11-15T05:46:28;10.40;99.90
21592;DHT22;10958;50.892;3.992;2022-11-15T05:48:55;10.30;99.90
21592;DHT22;10958;50.892;3.992;2022-11-15T05:51:25;10.40;99.90
21592;DHT22;10958;50.892;3.992;2022-11-15T05:53:54;10.40;99.90
21592;DHT22;10958;50.892;3.992;2022-11-15T05:56:21;10.40;99.90
21592;DHT22;10958;50.892;3.992;2022-11-15T05:58:47;10.40;99.90
21592;DHT22;10958;50.892;3.992;2022-11-15T06:01:16;10.50;99.90
21592;DHT22;10958;50.892;3.992;2022-11-15T06:03:42;10.40;99.90
21592;DHT22;10958;50.892;3.992;2022-11-15T06:06:08;10.30;99.90
21592;DHT22;10958;50.892;3.992;2022-11-15T06:08:34;10.30;99.90
21592;DHT22;10958;50.892;3.992;2022-11-15T06:11:06;10.30;99.90
21592;DHT22;10958;50.892;3.992;2022-11-15T06:13:33;10.30;99.90
21592;DHT22;10958;50.892;3.992;2022-11-15T06:15:59;10.30;99.90
21592;DHT22;10958;50.892;3.992;2022-11-15T06:18:25;10.20;99.90
21592;DHT22;10958;50.892;3.992;2022-11-15T06:20:53;10.10;99.90
21592;DHT22;10958;50.892;3.992;2022-11-15T06:23:19;10.10;99.90
21592;DHT22;10958;50.892;3.992;2022-11-15T06:25:58;10.10;99.90
21592;DHT22;10958;50.892;3.992;2022-11-15T06:28:24;10.10;99.90
21592;DHT22;10958;50.892;3.992;2022-11-15T06:30:50;10.20;99.90
21592;DHT22;10958;50.892;3.992;2022-11-15T06:33:16;10.00;99.90
21592;DHT22;10958;50.892;3.992;2022-11-15T06:35:42;9.90;99.90
21592;DHT22;10958;50.892;3.992;2022-11-15T06:38:12;9.80;99.90
21592;DHT22;10958;50.892;3.992;2022-11-15T06:40:39;9.80;99.90
21592;DHT22;10958;50.892;3.992;2022-11-15T06:43:15;9.80;99.90
21592;DHT22;10958;50.892;3.992;2022-11-15T06:45:41;9.80;99.90
21592;DHT22;10958;50.892;3.992;2022-11-15T06:48:07;9.90;99.90
21592;DHT22;10958;50.892;3.992;2022-11-15T06:50:33;10.00;99.90
21592;DHT22;10958;50.892;3.992;2022-11-15T06:53:08;9.90;99.90
21592;DHT22;10958;50.892;3.992;2022-11-15T06:55:34;9.90;99.90
21592;DHT22;10958;50.892;3.992;2022-11-15T06:58:02;9.90;99.90
21592;DHT22;10958;50.892;3.992;2022-11-15T07:00:29;9.60;99.90
21592;DHT22;10958;50.892;3.992;2022-11-15T07:02:54;9.60;99.90
21592;DHT22;10958;50.892;3.992;2022-11-15T07:05:23;9.60;99.90
21592;DHT22;10958;50.892;3.992;2022-11-15T07:07:54;9.60;99.90
21592;DHT22;10958;50.892;3.992;2022-11-15T07:10:21;9.60;99.90
21592;DHT22;10958;50.892;3.992;2022-11-15T07:12:50;9.50;99.90
21592;DHT22;10958;50.892;3.992;2022-11-15T07:15:17;9.50;99.90
21592;DHT22;10958;50.892;3.992;2022-11-15T07:17:43;9.50;99.90
21592;DHT22;10958;50.892;3.992;2022-11-15T07:20:09;9.60;99.90
21592;DHT22;10958;50.892;3.992;2022-11-15T07:22:35;9.60;99.90
21592;DHT22;10958;50.892;3.992;2022-11-15T07:25:01;9.60;99.90
21592;DHT22;10958;50.892;3.992;2022-11-15T07:27:27;9.50;99.90
21592;DHT22;10958;50.892;3.992;2022-11-15T07:29:53;9.50;99.90
21592;DHT22;10958;50.892;3.992;2022-11-15T07:32:18;9.50;99.90
21592;DHT22;10958;50.892;3.992;2022-11-15T07:35:10;9.40;99.90
21592;DHT22;10958;50.892;3.992;2022-11-15T07:37:36;9.30;99.90
21592;DHT22;10958;50.892;3.992;2022-11-15T07:40:05;9.60;99.90
21592;DHT22;10958;50.892;3.992;2022-11-15T07:42:31;9.60;99.90
21592;DHT22;10958;50.892;3.992;2022-11-15T07:45:24;9.60;99.90
21592;DHT22;10958;50.892;3.992;2022-11-15T07:47:53;9.60;99.90
21592;DHT22;10958;50.892;3.992;2022-11-15T07:50:19;9.50;99.90
21592;DHT22;10958;50.892;3.992;2022-11-15T07:52:45;9.50;99.90
21592;DHT22;10958;50.892;3.992;2022-11-15T07:55:11;9.60;99.90
21592;DHT22;10958;50.892;3.992;2022-11-15T07:57:41;9.70;99.90
21592;DHT22;10958;50.892;3.992;2022-11-15T08:00:07;9.70;99.90
21592;DHT22;10958;50.892;3.992;2022-11-15T08:02:34;9.70;99.90
21592;DHT22;10958;50.892;3.992;2022-11-15T08:05:09;9.70;99.90
21592;DHT22;10958;50.892;3.992;2022-11-15T08:07:35;9.90;99.90
21592;DHT22;10958;50.892;3.992;2022-11-15T08:10:01;9.90;99.90
21592;DHT22;10958;50.892;3.992;2022-11-15T08:12:28;10.00;99.90
21592;DHT22;10958;50.892;3.992;2022-11-15T08:14:57;10.10;99.90
21592;DHT22;10958;50.892;3.992;2022-11-15T08:17:25;10.20;99.90
21592;DHT22;10958;50.892;3.992;2022-11-15T08:19:51;10.30;99.90
21592;DHT22;10958;50.892;3.992;2022-11-15T08:22:18;10.40;99.90
21592;DHT22;10958;50.892;3.992;2022-11-15T08:24:44;10.40;99.90
21592;DHT22;10958;50.892;3.992;2022-11-15T08:27:10;10.40;99.90
21592;DHT22;10958;50.892;3.992;2022-11-15T08:29:47;10.40;99.90
21592;DHT22;10958;50.892;3.992;2022-11-15T08:32:15;10.40;99.90
21592;DHT22;10958;50.892;3.992;2022-11-15T08:34:42;10.40;99.90
21592;DHT22;10958;50.892;3.992;2022-11-15T08:37:07;10.60;99.90
21592;DHT22;10958;50.892;3.992;2022-11-15T08:39:33;10.70;99.90
21592;DHT22;10958;50.892;3.992;2022-11-15T08:41:59;10.90;99.90
21592;DHT22;10958;50.892;3.992;2022-11-15T08:44:26;11.00;99.90
21592;DHT22;10958;50.892;3.992;2022-11-15T08:46:51;11.00;99.90
21592;DHT22;10958;50.892;3.992;2022-11-15T08:49:17;11.30;99.90
21592;DHT22;10958;50.892;3.992;2022-11-15T08:51:43;11.50;99.90
21592;DHT22;10958;50.892;3.992;2022-11-15T08:54:09;11.50;99.90
21592;DHT22;10958;50.892;3.992;2022-11-15T08:56:35;11.30;99.90
21592;DHT22;10958;50.892;3.992;2022-11-15T08:59:01;11.10;99.90
21592;DHT22;10958;50.892;3.992;2022-11-15T09:01:27;11.20;99.90
21592;DHT22;10958;50.892;3.992;2022-11-15T09:03:52;11.50;99.90
21592;DHT22;10958;50.892;3.992;2022-11-15T09:06:19;11.80;99.90
21592;DHT22;10958;50.892;3.992;2022-11-15T09:08:47;12.10;99.90
21592;DHT22;10958;50.892;3.992;2022-11-15T09:11:14;12.40;99.90
21592;DHT22;10958;50.892;3.992;2022-11-15T09:13:42;12.50;99.90
21592;DHT22;10958;50.892;3.992;2022-11-15T09:16:08;12.70;99.90
21592;DHT22;10958;50.892;3.992;2022-11-15T09:18:34;12.70;99.90
21592;DHT22;10958;50.892;3.992;2022-11-15T09:21:00;12.80;99.90
21592;DHT22;10958;50.892;3.992;2022-11-15T09:23:27;13.00;99.90
21592;DHT22;10958;50.892;3.992;2022-11-15T09:25:59;13.30;99.90
21592;DHT22;10958;50.892;3.992;2022-11-15T09:28:26;13.20;99.90
21592;DHT22;10958;50.892;3.992;2022-11-15T09:30:55;13.30;99.90
21592;DHT22;10958;50.892;3.992;2022-11-15T09:33:21;13.50;99.90
21592;DHT22;10958;50.892;3.992;2022-11-15T09:35:47;13.70;99.90
21592;DHT22;10958;50.892;3.992;2022-11-15T09:38:12;13.40;99.90
21592;DHT22;10958;50.892;3.992;2022-11-15T09:40:38;13.20;99.90
21592;DHT22;10958;50.892;3.992;2022-11-15T09:43:38;13.10;99.90
21592;DHT22;10958;50.892;3.992;2022-11-15T09:49:00;13.40;99.90
21592;DHT22;10958;50.892;3.992;2022-11-15T09:51:33;13.40;99.90
21592;DHT22;10958;50.892;3.992;2022-11-15T09:56:44;13.10;99.90
21592;DHT22;10958;50.892;3.992;2022-11-15T10:05:04;12.70;99.90
21592;DHT22;10958;50.892;3.992;2022-11-15T10:13:03;12.50;99.90
21592;DHT22;10958;50.892;3.992;2022-11-15T10:15:34;12.60;99.90
21592;DHT22;10958;50.892;3.992;2022-11-15T10:20:52;12.70;99.90
21592;DHT22;10958;50.892;3.992;2022-11-15T10:23:22;12.70;99.90
21592;DHT22;10958;50.892;3.992;2022-11-15T10:25:52;12.80;99.90
21592;DHT22;10958;50.892;3.992;2022-11-15T10:28:29;12.70;99.90
21592;DHT22;10958;50.892;3.992;2022-11-15T10:31:00;12.80;99.90
21592;DHT22;10958;50.892;3.992;2022-11-15T10:46:36;13.10;99.90
21592;DHT22;10958;50.892;3.992;2022-11-15T10:49:28;13.00;99.90
21592;DHT22;10958;50.892;3.992;2022-11-15T10:51:57;12.80;99.90
21592;DHT22;10958;50.892;3.992;2022-11-15T10:57:14;12.90;99.90
21592;DHT22;10958;50.892;3.992;2022-11-15T10:59:49;13.00;99.90
21592;DHT22;10958;50.892;3.992;2022-11-15T11:04:01;12.90;99.90
21592;DHT22;10958;50.892;3.992;2022-11-15T11:06:28;12.90;99.90
21592;DHT22;10958;50.892;3.992;2022-11-15T11:08:58;13.00;99.90
21592;DHT22;10958;50.892;3.992;2022-11-15T11:11:25;13.20;99.90
21592;DHT22;10958;50.892;3.992;2022-11-15T11:13:54;13.10;99.90
21592;DHT22;10958;50.892;3.992;2022-11-15T11:16:32;13.20;99.90
21592;DHT22;10958;50.892;3.992;2022-11-15T11:19:31;13.10;99.90
21592;DHT22;10958;50.892;3.992;2022-11-15T11:24:49;13.30;99.90
21592;DHT22;10958;50.892;3.992;2022-11-15T11:30:23;13.20;99.90
21592;DHT22;10958;50.892;3.992;2022-11-15T11:41:33;13.40;99.90
21592;DHT22;10958;50.892;3.992;2022-11-15T11:47:00;13.40;99.90
21592;DHT22;10958;50.892;3.992;2022-11-15T11:52:29;13.40;99.90
21592;DHT22;10958;50.892;3.992;2022-11-15T11:55:19;13.30;99.90
21592;DHT22;10958;50.892;3.992;2022-11-15T11:58:03;13.20;99.90
21592;DHT22;10958;50.892;3.992;2022-11-15T12:00:41;13.30;99.90
21592;DHT22;10958;50.892;3.992;2022-11-15T12:03:25;13.30;99.90
21592;DHT22;10958;50.892;3.992;2022-11-15T12:05:54;13.40;99.90
21592;DHT22;10958;50.892;3.992;2022-11-15T12:13:43;13.30;99.90
21592;DHT22;10958;50.892;3.992;2022-11-15T12:16:31;13.30;99.90
21592;DHT22;10958;50.892;3.992;2022-11-15T12:19:02;13.30;99.90
21592;DHT22;10958;50.892;3.992;2022-11-15T12:21:52;13.30;99.90
21592;DHT22;10958;50.892;3.992;2022-11-15T12:24:29;13.30;99.90
21592;DHT22;10958;50.892;3.992;2022-11-15T12:27:02;13.30;99.90
21592;DHT22;10958;50.892;3.992;2022-11-15T12:29:41;13.30;99.90
21592;DHT22;10958;50.892;3.992;2022-11-15T12:32:26;13.40;99.90
21592;DHT22;10958;50.892;3.992;2022-11-15T12:34:55;13.50;99.90
21592;DHT22;10958;50.892;3.992;2022-11-15T12:43:07;13.60;99.90
21592;DHT22;10958;50.892;3.992;2022-11-15T12:45:46;13.60;99.90
21592;DHT22;10958;50.892;3.992;2022-11-15T12:59:55;13.60;99.90
21592;DHT22;10958;50.892;3.992;2022-11-15T13:08:40;13.50;99.90
21592;DHT22;10958;50.892;3.992;2022-11-15T13:16:47;13.70;99.90
21592;DHT22;10958;50.892;3.992;2022-11-15T13:25:27;13.70;99.90
21592;DHT22;10958;50.892;3.992;2022-11-15T13:35:57;13.70;99.90
21592;DHT22;10958;50.892;3.992;2022-11-15T13:38:44;13.70;99.90
21592;DHT22;10958;50.892;3.992;2022-11-15T13:42:03;13.80;99.90
21592;DHT22;10958;50.892;3.992;2022-11-15T13:44:39;13.70;99.90
21592;DHT22;10958;50.892;3.992;2022-11-15T13:47:18;13.70;99.90
21592;DHT22;10958;50.892;3.992;2022-11-15T13:49:47;13.70;99.90
21592;DHT22;10958;50.892;3.992;2022-11-15T13:52:48;13.70;99.90
21592;DHT22;10958;50.892;3.992;2022-11-15T13:55:57;13.60;99.90
21592;DHT22;10958;50.892;3.992;2022-11-15T13:58:31;13.70;99.90
21592;DHT22;10958;50.892;3.992;2022-11-15T14:01:03;13.60;99.90
21592;DHT22;10958;50.892;3.992;2022-11-15T14:03:34;13.70;99.90
21592;DHT22;10958;50.892;3.992;2022-11-15T14:06:18;13.60;99.90
21592;DHT22;10958;50.892;3.992;2022-11-15T14:09:04;13.60;99.90
21592;DHT22;10958;50.892;3.992;2022-11-15T14:11:31;13.50;99.90
21592;DHT22;10958;50.892;3.992;2022-11-15T14:14:11;13.50;99.90
21592;DHT22;10958;50.892;3.992;2022-11-15T14:16:57;13.40;99.90
21592;DHT22;10958;50.892;3.992;2022-11-15T14:22:26;13.40;99.90
21592;DHT22;10958;50.892;3.992;2022-11-15T14:28:29;13.20;99.90
21592;DHT22;10958;50.892;3.992;2022-11-15T14:31:15;13.20;99.90
21592;DHT22;10958;50.892;3.992;2022-11-15T14:34:01;13.10;99.90
21592;DHT22;10958;50.892;3.992;2022-11-15T14:36:36;13.10;99.90
21592;DHT22;10958;50.892;3.992;2022-11-15T14:39:18;13.10;99.90
21592;DHT22;10958;50.892;3.992;2022-11-15T14:41:59;13.20;99.90
21592;DHT22;10958;50.892;3.992;2022-11-15T14:44:31;13.20;99.90
21592;DHT22;10958;50.892;3.992;2022-11-15T14:46:59;13.10;99.90
21592;DHT22;10958;50.892;3.992;2022-11-15T14:49:28;13.20;99.90
21592;DHT22;10958;50.892;3.992;2022-11-15T14:51:56;13.10;99.90
21592;DHT22;10958;50.892;3.992;2022-11-15T14:54:25;13.10;99.90
21592;DHT22;10958;50.892;3.992;2022-11-15T14:57:11;13.10;99.90
21592;DHT22;10958;50.892;3.992;2022-11-15T14:59:44;13.00;99.90
21592;DHT22;10958;50.892;3.992;2022-11-15T15:02:31;13.00;99.90
21592;DHT22;10958;50.892;3.992;2022-11-15T15:07:50;12.90;99.90
21592;DHT22;10958;50.892;3.992;2022-11-15T15:10:27;12.70;99.90
21592;DHT22;10958;50.892;3.992;2022-11-15T15:13:08;12.60;99.90
21592;DHT22;10958;50.892;3.992;2022-11-15T15:15:54;12.60;99.90
21592;DHT22;10958;50.892;3.992;2022-11-15T15:18:28;12.80;99.90
21592;DHT22;10958;50.892;3.992;2022-11-15T15:20:59;12.80;99.90
21592;DHT22;10958;50.892;3.992;2022-11-15T15:23:30;12.70;99.90
21592;DHT22;10958;50.892;3.992;2022-11-15T15:26:17;12.70;99.90
21592;DHT22;10958;50.892;3.992;2022-11-15T15:28:46;12.60;99.90
21592;DHT22;10958;50.892;3.992;2022-11-15T15:31:14;12.70;99.90
21592;DHT22;10958;50.892;3.992;2022-11-15T15:33:41;12.50;99.90
21592;DHT22;10958;50.892;3.992;2022-11-15T15:36:17;12.40;99.90
21592;DHT22;10958;50.892;3.992;2022-11-15T15:38:49;12.40;99.90
21592;DHT22;10958;50.892;3.992;2022-11-15T15:45:17;12.50;99.90
21592;DHT22;10958;50.892;3.992;2022-11-15T15:48:15;12.50;99.90
21592;DHT22;10958;50.892;3.992;2022-11-15T15:50:42;12.40;99.90
21592;DHT22;10958;50.892;3.992;2022-11-15T15:53:17;12.50;99.90
21592;DHT22;10958;50.892;3.992;2022-11-15T15:55:46;12.50;99.90
21592;DHT22;10958;50.892;3.992;2022-11-15T16:00:57;12.50;99.90
21592;DHT22;10958;50.892;3.992;2022-11-15T16:03:33;12.50;99.90
21592;DHT22;10958;50.892;3.992;2022-11-15T16:05:58;12.50;99.90
21592;DHT22;10958;50.892;3.992;2022-11-15T16:08:30;12.60;99.90
21592;DHT22;10958;50.892;3.992;2022-11-15T16:10:59;12.50;99.90
21592;DHT22;10958;50.892;3.992;2022-11-15T16:13:51;12.60;99.90
21592;DHT22;10958;50.892;3.992;2022-11-15T16:16:31;12.50;99.90
21592;DHT22;10958;50.892;3.992;2022-11-15T16:19:11;12.50;99.90
21592;DHT22;10958;50.892;3.992;2022-11-15T16:21:39;12.60;99.90
21592;DHT22;10958;50.892;3.992;2022-11-15T16:24:12;12.50;99.90
21592;DHT22;10958;50.892;3.992;2022-11-15T16:26:41;12.50;99.90
21592;DHT22;10958;50.892;3.992;2022-11-15T16:29:10;12.60;99.90
21592;DHT22;10958;50.892;3.992;2022-11-15T16:31:37;12.50;99.90
21592;DHT22;10958;50.892;3.992;2022-11-15T16:34:07;12.60;99.90
21592;DHT22;10958;50.892;3.992;2022-11-15T16:36:34;12.60;99.90
21592;DHT22;10958;50.892;3.992;2022-11-15T16:39:08;12.60;99.90
21592;DHT22;10958;50.892;3.992;2022-11-15T16:41:40;12.70;99.90
21592;DHT22;10958;50.892;3.992;2022-11-15T16:44:08;12.70;99.90
21592;DHT22;10958;50.892;3.992;2022-11-15T16:46:58;12.70;99.90
21592;DHT22;10958;50.892;3.992;2022-11-15T16:49:39;12.90;99.90
21592;DHT22;10958;50.892;3.992;2022-11-15T16:55:35;12.80;99.90
21592;DHT22;10958;50.892;3.992;2022-11-15T16:58:22;12.80;99.90
21592;DHT22;10958;50.892;3.992;2022-11-15T17:01:09;12.70;99.90
21592;DHT22;10958;50.892;3.992;2022-11-15T17:03:40;12.70;99.90
21592;DHT22;10958;50.892;3.992;2022-11-15T17:06:25;12.80;99.90
21592;DHT22;10958;50.892;3.992;2022-11-15T17:08:52;12.70;99.90
21592;DHT22;10958;50.892;3.992;2022-11-15T17:11:20;12.70;99.90
21592;DHT22;10958;50.892;3.992;2022-11-15T17:13:47;12.70;99.90
21592;DHT22;10958;50.892;3.992;2022-11-15T17:16:16;12.70;99.90
21592;DHT22;10958;50.892;3.992;2022-11-15T17:18:50;12.80;99.90
21592;DHT22;10958;50.892;3.992;2022-11-15T17:21:18;12.80;99.90
21592;DHT22;10958;50.892;3.992;2022-11-15T17:23:45;12.70;99.90
21592;DHT22;10958;50.892;3.992;2022-11-15T17:26:12;12.70;99.90
21592;DHT22;10958;50.892;3.992;2022-11-15T17:28:41;12.70;99.90
21592;DHT22;10958;50.892;3.992;2022-11-15T17:31:19;12.70;99.90
21592;DHT22;10958;50.892;3.992;2022-11-15T17:34:01;12.60;99.90
21592;DHT22;10958;50.892;3.992;2022-11-15T17:36:38;12.70;99.90
21592;DHT22;10958;50.892;3.992;2022-11-15T17:39:08;12.70;99.90
21592;DHT22;10958;50.892;3.992;2022-11-15T17:41:40;12.70;99.90
21592;DHT22;10958;50.892;3.992;2022-11-15T17:44:06;12.80;99.90
21592;DHT22;10958;50.892;3.992;2022-11-15T17:46:41;12.80;99.90
21592;DHT22;10958;50.892;3.992;2022-11-15T17:49:17;12.80;99.90
21592;DHT22;10958;50.892;3.992;2022-11-15T17:51:45;12.70;99.90
21592;DHT22;10958;50.892;3.992;2022-11-15T17:54:14;12.80;99.90
21592;DHT22;10958;50.892;3.992;2022-11-15T17:56:40;12.70;99.90
21592;DHT22;10958;50.892;3.992;2022-11-15T17:59:07;12.60;99.90
21592;DHT22;10958;50.892;3.992;2022-11-15T18:01:37;12.60;99.90
21592;DHT22;10958;50.892;3.992;2022-11-15T18:04:07;12.60;99.90
21592;DHT22;10958;50.892;3.992;2022-11-15T18:06:35;12.40;99.90
21592;DHT22;10958;50.892;3.992;2022-11-15T18:09:02;12.60;99.90
21592;DHT22;10958;50.892;3.992;2022-11-15T18:11:31;12.60;99.90
21592;DHT22;10958;50.892;3.992;2022-11-15T18:14:03;12.50;99.90
21592;DHT22;10958;50.892;3.992;2022-11-15T18:16:32;12.70;99.90
21592;DHT22;10958;50.892;3.992;2022-11-15T18:18:58;12.60;99.90
21592;DHT22;10958;50.892;3.992;2022-11-15T18:21:30;12.60;99.90
21592;DHT22;10958;50.892;3.992;2022-11-15T18:24:00;12.70;99.90
21592;DHT22;10958;50.892;3.992;2022-11-15T18:26:28;12.90;99.90
21592;DHT22;10958;50.892;3.992;2022-11-15T18:29:05;12.90;99.90
21592;DHT22;10958;50.892;3.992;2022-11-15T18:31:44;12.90;99.90
21592;DHT22;10958;50.892;3.992;2022-11-15T18:34:34;12.90;99.90
21592;DHT22;10958;50.892;3.992;2022-11-15T18:37:12;12.90;99.90
21592;DHT22;10958;50.892;3.992;2022-11-15T18:39:44;13.00;99.90